Time;durP1;ratioP1;P1;durP2;ratioP2;P2;SDS_P1;SDS_P2;PMS_P1;PMS_P2;Temp;Humidity;BMP_temperature;BMP_pressure;BME280_temperature;BME280_humidity;BME280_pressure;Samples;Min_cycle;Max_cycle;Signal;HPM_P1;HPM_P2
2024/02/02 00:00:26;;;;;;;15.70;5.90;;;;;;;13.63;68.85;99423.54;136027;1285;22550;-79
2024/02/02 00:03:49;;;;;;;19.40;5.70;;;;;;;10.69;64.52;99443.48;137174;1277;22241;-80
2024/02/02 00:06:51;;;;;;;14.80;5.30;;;;;;;8.45;79.22;99452.55;136631;1277;22579;-79
2024/02/02 00:09:54;;;;;;;20.70;5.10;;;;;;;9.01;79.31;99450.39;136652;1277;22189;-81
2024/02/02 00:12:57;;;;;;;15.10;4.90;;;;;;;8.09;79.61;99446.39;137057;1277;22559;-81
2024/02/02 00:15:59;;;;;;;28.70;8.90;;;;;;;7.72;84.30;99450.21;136894;1277;22720;-80
2024/02/02 00:19:04;;;;;;;22.80;7.20;;;;;;;7.11;82.41;99453.30;136646;1277;22561;-81
2024/02/02 00:22:07;;;;;;;25.50;7.30;;;;;;;6.52;88.46;99453.41;136773;1273;24867;-83
2024/02/02 00:25:09;;;;;;;19.50;7.00;;;;;;;6.88;92.92;99453.04;137146;1277;22518;-81
2024/02/02 00:28:12;;;;;;;26.60;6.60;;;;;;;7.14;90.97;99452.59;136696;1277;22425;-79
2024/02/02 00:31:14;;;;;;;13.70;5.50;;;;;;;7.02;86.99;99460.10;136964;1277;23069;-81
2024/02/02 00:34:17;;;;;;;20.60;5.30;;;;;;;6.22;86.11;99465.39;137281;1277;22675;-79
2024/02/02 00:37:19;;;;;;;17.60;4.90;;;;;;;5.91;91.08;99465.17;136755;1277;22371;-79
2024/02/02 00:40:22;;;;;;;15.80;5.70;;;;;;;5.81;91.79;99474.75;137222;1277;22286;-79
2024/02/02 00:43:24;;;;;;;13.10;4.20;;;;;;;5.47;91.84;99478.20;137189;1277;22615;-80
2024/02/02 00:46:28;;;;;;;14.40;4.60;;;;;;;5.13;96.55;99478.45;137179;1277;22243;-80
2024/02/02 00:49:30;;;;;;;22.00;6.40;;;;;;;5.05;96.74;99475.00;137272;1277;22172;-79
2024/02/02 00:52:33;;;;;;;23.60;6.20;;;;;;;5.07;99.68;99470.24;137259;1277;22689;-80
2024/02/02 00:55:35;;;;;;;15.40;5.30;;;;;;;5.25;99.93;99477.25;137248;1277;22371;-80
2024/02/02 00:58:38;;;;;;;16.60;5.70;;;;;;;5.50;99.50;99476.08;137230;1277;22231;-80
2024/02/02 01:01:40;;;;;;;20.40;5.90;;;;;;;5.73;100.00;99480.67;137127;1277;22645;-78
2024/02/02 01:04:43;;;;;;;22.00;5.80;;;;;;;6.16;100.00;99478.31;137174;1277;22257;-80
2024/02/02 01:07:47;;;;;;;19.00;5.80;;;;;;;6.41;98.58;99478.08;137193;1277;22559;-80
2024/02/02 01:10:50;;;;;;;21.50;5.60;;;;;;;6.46;96.92;99476.52;137155;1277;22198;-80
2024/02/02 01:13:52;;;;;;;21.00;5.50;;;;;;;6.44;98.53;99482.84;137199;1277;23134;-79
2024/02/02 01:16:55;;;;;;;16.60;5.40;;;;;;;6.27;91.65;99489.10;137168;1277;22316;-79
2024/02/02 01:20:01;;;;;;;21.90;5.70;;;;;;;5.41;91.09;99497.95;137279;1277;22208;-79
2024/02/02 01:23:04;;;;;;;23.40;5.70;;;;;;;4.73;93.79;99491.33;137163;1277;22165;-79
2024/02/02 01:26:07;;;;;;;15.90;5.70;;;;;;;4.43;96.89;99495.10;137266;1277;22202;-79
2024/02/02 01:29:09;;;;;;;21.10;6.70;;;;;;;4.08;97.23;99501.52;137276;1277;22356;-79
2024/02/02 01:32:12;;;;;;;16.20;5.20;;;;;;;3.88;99.31;99496.24;137165;1277;22579;-78
2024/02/02 01:35:14;;;;;;;15.20;5.20;;;;;;;3.78;99.79;99504.88;137240;1277;22272;-79
2024/02/02 01:38:17;;;;;;;20.70;7.20;;;;;;;3.74;100.00;99506.58;137136;1277;22270;-78
2024/02/02 01:41:19;;;;;;;20.60;6.30;;;;;;;4.29;99.08;99510.30;137227;1277;22330;-79
2024/02/02 01:44:22;;;;;;;18.50;4.30;;;;;;;3.85;98.43;99507.99;137212;1277;22186;-79
2024/02/02 01:47:24;;;;;;;18.40;4.90;;;;;;;3.43;99.74;99508.95;137263;1277;22237;-79
2024/02/02 01:50:27;;;;;;;18.00;5.20;;;;;;;3.12;100.00;99514.10;137236;1277;22229;-79
2024/02/02 01:53:29;;;;;;;16.40;4.90;;;;;;;2.91;100.00;99515.39;137220;1277;22168;-80
2024/02/02 01:56:32;;;;;;;27.20;5.20;;;;;;;2.76;100.00;99519.08;137091;1277;22393;-79
2024/02/02 01:59:37;;;;;;;15.60;4.10;;;;;;;2.69;100.00;99517.48;137306;1277;22157;-80
2024/02/02 02:02:40;;;;;;;16.40;4.50;;;;;;;2.61;100.00;99514.28;137190;1277;22259;-80
2024/02/02 02:05:44;;;;;;;16.00;5.10;;;;;;;2.57;100.00;99518.89;137189;1277;22208;-80
2024/02/02 02:08:47;;;;;;;16.70;4.40;;;;;;;2.58;100.00;99514.61;137271;1277;22183;-81
2024/02/02 02:11:55;;;;;;;19.90;5.50;;;;;;;2.59;100.00;99512.27;137203;1277;22515;-80
2024/02/02 02:14:58;;;;;;;15.20;3.90;;;;;;;2.61;100.00;99518.77;137187;1277;22408;-80
2024/02/02 02:18:03;;;;;;;14.60;4.10;;;;;;;2.62;100.00;99519.89;137199;1277;22568;-79
2024/02/02 02:21:06;;;;;;;14.50;4.10;;;;;;;2.63;100.00;99521.46;136027;1277;22557;-81
2024/02/02 02:24:09;;;;;;;15.20;4.30;;;;;;;2.63;100.00;99520.62;136601;1277;22455;-80
2024/02/02 02:27:12;;;;;;;15.80;4.20;;;;;;;2.65;100.00;99524.84;136419;1277;22306;-80
2024/02/02 02:30:14;;;;;;;21.70;5.40;;;;;;;2.67;100.00;99531.10;136834;1277;22534;-80
2024/02/02 02:33:17;;;;;;;18.30;4.60;;;;;;;2.67;100.00;99534.20;136598;1277;22174;-79
2024/02/02 02:36:20;;;;;;;16.50;4.40;;;;;;;2.66;100.00;99535.73;136612;1277;22177;-80
2024/02/02 02:39:23;;;;;;;19.30;5.20;;;;;;;2.65;100.00;99534.81;136654;1277;24250;-77
2024/02/02 02:42:25;;;;;;;20.70;4.60;;;;;;;4.01;100.00;99526.83;136854;1277;22545;-78
2024/02/02 02:45:28;;;;;;;23.30;5.00;;;;;;;5.65;100.00;99528.52;137123;1277;22201;-79
2024/02/02 02:48:33;;;;;;;17.60;4.20;;;;;;;4.60;100.00;99529.31;137065;1277;22312;-79
2024/02/02 02:51:35;;;;;;;11.70;3.90;;;;;;;3.90;100.00;99529.55;137147;1277;22877;-79
2024/02/02 02:54:38;;;;;;;12.50;3.70;;;;;;;3.50;100.00;99528.59;136985;1277;22251;-79
2024/02/02 02:57:40;;;;;;;14.30;4.10;;;;;;;3.21;100.00;99531.06;137056;1277;22183;-80
2024/02/02 03:00:42;;;;;;;23.00;4.80;;;;;;;3.04;100.00;99536.35;136930;1277;22576;-80
2024/02/02 03:03:45;;;;;;;19.20;4.40;;;;;;;2.95;100.00;99536.73;136836;1277;22258;-79
2024/02/02 03:06:48;;;;;;;20.30;4.10;;;;;;;2.89;100.00;99534.55;137309;1278;22231;-79
2024/02/02 03:09:50;;;;;;;19.90;4.40;;;;;;;2.85;100.00;99541.56;137189;1277;22278;-79
2024/02/02 03:12:52;;;;;;;21.10;4.00;;;;;;;2.83;100.00;99538.52;137156;1273;22261;-80
2024/02/02 03:15:55;;;;;;;17.00;4.40;;;;;;;2.81;100.00;99541.02;137115;1277;22628;-80
2024/02/02 03:18:57;;;;;;;17.60;4.10;;;;;;;2.79;100.00;99540.40;137255;1277;22241;-81
2024/02/02 03:22:03;;;;;;;17.90;4.20;;;;;;;2.77;100.00;99539.57;137092;1277;22377;-83
2024/02/02 03:25:05;;;;;;;18.60;4.50;;;;;;;2.77;100.00;99545.62;137103;1277;22248;-83
2024/02/02 03:28:08;;;;;;;22.60;5.00;;;;;;;2.78;100.00;99553.06;137258;1269;22409;-84
2024/02/02 03:31:10;;;;;;;18.40;4.60;;;;;;;3.37;100.00;99555.91;137193;1277;22208;-82
2024/02/02 03:34:13;;;;;;;18.40;4.70;;;;;;;6.29;100.00;99547.96;137227;1277;22365;-82
2024/02/02 03:37:15;;;;;;;18.20;4.30;;;;;;;9.02;100.00;99538.89;137191;1277;22126;-82
2024/02/02 03:40:18;;;;;;;13.50;4.00;;;;;;;11.18;100.00;99528.38;137245;1277;22756;-83
2024/02/02 03:43:20;;;;;;;19.80;4.60;;;;;;;11.34;100.00;99533.92;137108;1277;22244;-82
2024/02/02 03:46:23;;;;;;;17.80;4.10;;;;;;;8.98;100.00;99541.05;137191;1277;22236;-83
2024/02/02 03:49:26;;;;;;;15.90;4.20;;;;;;;7.76;100.00;99543.73;137072;1275;22598;-82
2024/02/02 03:52:28;;;;;;;20.50;4.50;;;;;;;7.16;100.00;99548.52;137235;1277;22351;-82
2024/02/02 03:55:31;;;;;;;20.90;4.60;;;;;;;7.30;100.00;99549.23;137177;1277;22260;-82
2024/02/02 03:58:33;;;;;;;14.60;3.90;;;;;;;7.90;100.00;99546.15;137230;1277;22184;-83
2024/02/02 04:01:36;;;;;;;16.00;5.50;;;;;;;8.16;100.00;99550.66;137244;1277;22723;-82
2024/02/02 04:04:38;;;;;;;13.80;4.30;;;;;;;8.44;100.00;99544.98;137133;1277;22228;-83
2024/02/02 04:07:41;;;;;;;17.70;5.40;;;;;;;8.94;100.00;99544.30;137244;1277;22185;-82
2024/02/02 04:10:43;;;;;;;15.90;4.60;;;;;;;8.71;100.00;99547.59;137194;1277;22265;-81
2024/02/02 04:13:46;;;;;;;19.40;5.10;;;;;;;7.71;100.00;99551.55;137255;1277;22726;-82
2024/02/02 04:16:48;;;;;;;17.20;5.60;;;;;;;6.80;100.00;99556.54;137205;1277;22315;-84
2024/02/02 04:19:51;;;;;;;15.50;4.70;;;;;;;6.51;100.00;99560.07;137219;1277;22442;-82
2024/02/02 04:22:53;;;;;;;21.90;6.00;;;;;;;6.21;100.00;99558.19;137237;1277;22212;-82
2024/02/02 04:25:56;;;;;;;18.50;5.60;;;;;;;5.96;100.00;99561.94;137168;1277;22371;-78
2024/02/02 04:28:59;;;;;;;24.20;5.70;;;;;;;5.77;100.00;99564.95;137210;1277;22309;-79
2024/02/02 04:32:01;;;;;;;16.90;4.80;;;;;;;5.54;100.00;99567.38;137177;1277;22291;-80
2024/02/02 04:35:04;;;;;;;24.70;5.50;;;;;;;5.46;100.00;99578.43;137205;1277;22214;-80
2024/02/02 04:38:06;;;;;;;18.60;4.90;;;;;;;4.93;100.00;99580.69;137221;1277;22325;-79
2024/02/02 04:41:09;;;;;;;18.80;4.90;;;;;;;4.75;100.00;99580.22;137202;1277;22287;-80
2024/02/02 04:44:11;;;;;;;18.00;5.00;;;;;;;5.22;100.00;99582.56;137220;1277;22217;-80
2024/02/02 04:47:14;;;;;;;19.10;4.90;;;;;;;4.97;100.00;99584.14;137203;1276;22419;-79
2024/02/02 04:50:16;;;;;;;19.80;5.70;;;;;;;4.86;100.00;99585.90;137187;1277;22833;-79
2024/02/02 04:53:19;;;;;;;31.10;6.40;;;;;;;5.14;100.00;99586.32;137186;1277;22201;-79
2024/02/02 04:56:23;;;;;;;22.80;5.60;;;;;;;4.41;100.00;99578.92;137155;1277;22221;-81
2024/02/02 04:59:26;;;;;;;20.60;5.90;;;;;;;3.90;100.00;99582.47;137118;1277;22733;-80
2024/02/02 05:02:28;;;;;;;23.80;6.10;;;;;;;3.62;100.00;99587.72;137097;1277;22689;-79
2024/02/02 05:05:31;;;;;;;24.50;5.90;;;;;;;3.43;100.00;99585.19;137161;1276;22246;-79
2024/02/02 05:08:33;;;;;;;19.20;5.40;;;;;;;3.33;100.00;99586.54;137167;1276;22154;-79
2024/02/02 05:11:37;;;;;;;24.70;5.50;;;;;;;3.29;100.00;99587.38;137149;1277;22234;-79
2024/02/02 05:14:40;;;;;;;23.00;5.30;;;;;;;3.20;100.00;99595.85;137185;1277;22400;-79
2024/02/02 05:17:42;;;;;;;18.50;5.40;;;;;;;3.09;100.00;99594.45;137262;1277;22560;-80
2024/02/02 05:20:46;;;;;;;27.30;6.50;;;;;;;3.03;100.00;99596.84;137165;1277;22226;-79
2024/02/02 05:23:48;;;;;;;26.80;6.60;;;;;;;2.95;100.00;99602.11;137162;1277;22241;-79
2024/02/02 05:26:51;;;;;;;34.00;6.60;;;;;;;2.89;100.00;99605.55;137109;1277;22243;-79
2024/02/02 05:29:53;;;;;;;19.00;5.90;;;;;;;2.80;100.00;99606.79;137286;1277;22241;-78
2024/02/02 05:32:56;;;;;;;21.60;6.60;;;;;;;2.85;100.00;99607.73;137251;1266;22924;-78
2024/02/02 05:35:58;;;;;;;21.00;6.60;;;;;;;2.89;100.00;99615.36;137227;1277;22638;-79
2024/02/02 05:39:01;;;;;;;24.90;7.80;;;;;;;2.82;100.00;99613.42;137206;1277;22191;-79
2024/02/02 05:42:04;;;;;;;21.00;6.10;;;;;;;2.77;100.00;99611.61;137132;1277;22195;-79
2024/02/02 05:45:06;;;;;;;22.90;7.00;;;;;;;2.85;100.00;99613.56;137209;1277;22253;-79
2024/02/02 05:48:09;;;;;;;25.70;7.30;;;;;;;2.78;100.00;99613.36;137058;1277;22620;-78
2024/02/02 05:51:11;;;;;;;22.40;6.70;;;;;;;2.76;100.00;99610.33;137148;1277;22751;-80
2024/02/02 05:54:14;;;;;;;30.00;7.80;;;;;;;2.80;100.00;99604.88;137130;1277;22316;-79
2024/02/02 05:57:20;;;;;;;32.90;6.50;;;;;;;2.88;100.00;99606.33;137198;1277;22327;-79
2024/02/02 06:00:22;;;;;;;28.00;6.20;;;;;;;2.81;100.00;99609.58;137151;1277;22207;-79
2024/02/02 06:03:25;;;;;;;22.30;6.80;;;;;;;2.76;100.00;99612.39;137124;1277;22275;-77
2024/02/02 06:06:27;;;;;;;30.00;6.40;;;;;;;2.84;100.00;99606.63;137047;1277;22233;-77
2024/02/02 06:09:30;;;;;;;23.20;6.10;;;;;;;2.98;100.00;99609.98;137104;1262;22708;-81
2024/02/02 06:12:34;;;;;;;24.10;6.10;;;;;;;2.99;100.00;99613.48;137087;1270;22390;-84
2024/02/02 06:15:42;;;;;;;21.60;6.30;;;;;;;2.94;100.00;99618.20;137098;1277;22717;-79
2024/02/02 06:18:44;;;;;;;30.60;7.20;;;;;;;2.94;100.00;99627.83;137216;1276;22216;-80
2024/02/02 06:21:47;;;;;;;32.50;7.60;;;;;;;2.97;100.00;99623.32;137249;1276;22218;-81
2024/02/02 06:24:49;;;;;;;27.40;6.60;;;;;;;2.90;100.00;99627.23;137255;1276;22262;-81
2024/02/02 06:27:53;;;;;;;24.70;6.70;;;;;;;2.73;100.00;99624.63;137244;1272;22348;-83
2024/02/02 06:30:56;;;;;;;29.70;8.10;;;;;;;2.75;100.00;99625.05;137223;1276;22225;-84
2024/02/02 06:33:58;;;;;;;30.90;8.10;;;;;;;2.80;100.00;99627.77;137236;1272;22775;-83
2024/02/02 06:37:01;;;;;;;31.00;8.30;;;;;;;2.84;100.00;99630.55;137245;1276;22380;-85
2024/02/02 06:40:04;;;;;;;30.30;7.50;;;;;;;2.82;100.00;99631.48;137208;1276;22255;-85
2024/02/02 06:43:06;;;;;;;27.30;7.40;;;;;;;2.84;100.00;99638.45;137223;1276;22231;-83
2024/02/02 06:46:09;;;;;;;25.80;6.70;;;;;;;2.85;100.00;99637.67;137203;1276;22299;-82
2024/02/02 06:49:12;;;;;;;27.70;7.70;;;;;;;3.07;100.00;99635.92;137195;1276;22274;-82
2024/02/02 06:52:14;;;;;;;31.70;8.80;;;;;;;3.18;100.00;99645.31;137232;1276;22555;-84
2024/02/02 06:55:17;;;;;;;32.30;9.30;;;;;;;3.27;100.00;99649.04;137208;1276;22216;-85
2024/02/02 06:58:19;;;;;;;31.40;10.00;;;;;;;3.29;100.00;99655.36;137185;1276;22421;-84
2024/02/02 07:01:22;;;;;;;31.90;10.10;;;;;;;3.45;100.00;99652.91;137186;1276;23156;-84
2024/02/02 07:04:24;;;;;;;22.60;7.90;;;;;;;3.50;100.00;99645.45;137243;1266;22563;-84
2024/02/02 07:07:27;;;;;;;30.70;9.00;;;;;;;3.41;100.00;99650.84;137266;1272;22220;-83
2024/02/02 07:10:29;;;;;;;25.10;8.10;;;;;;;3.46;100.00;99660.73;137214;1276;22272;-80
2024/02/02 07:13:32;;;;;;;35.00;10.70;;;;;;;3.33;100.00;99659.66;137228;1276;22370;-81
2024/02/02 07:16:34;;;;;;;29.60;9.30;;;;;;;3.10;100.00;99657.09;137268;1276;22229;-82
2024/02/02 07:19:36;;;;;;;30.00;10.00;;;;;;;2.97;100.00;99659.11;137259;1276;22228;-83
2024/02/02 07:22:39;;;;;;;30.60;9.90;;;;;;;2.84;100.00;99664.95;137267;1276;22279;-82
2024/02/02 07:25:42;;;;;;;33.10;9.90;;;;;;;2.74;100.00;99666.77;137259;1276;22633;-82
2024/02/02 07:28:45;;;;;;;22.40;8.40;;;;;;;2.67;100.00;99666.02;137242;1273;22289;-83
2024/02/02 07:31:47;;;;;;;27.10;8.60;;;;;;;2.61;100.00;99669.63;137242;1272;22219;-84
2024/02/02 07:34:51;;;;;;;33.80;11.10;;;;;;;2.59;100.00;99666.05;137246;1276;22319;-84
2024/02/02 07:37:53;;;;;;;33.80;11.50;;;;;;;2.61;100.00;99670.52;137209;1276;22215;-82
2024/02/02 07:40:58;;;;;;;37.90;11.80;;;;;;;2.64;100.00;99678.25;137224;1276;23277;-82
2024/02/02 07:44:01;;;;;;;33.10;10.90;;;;;;;2.70;100.00;99679.10;137161;1276;22850;-84
2024/02/02 07:47:04;;;;;;;28.20;10.10;;;;;;;2.75;100.00;99676.98;137118;1276;22667;-82
2024/02/02 07:50:06;;;;;;;28.20;8.90;;;;;;;2.83;100.00;99684.61;137251;1276;22355;-85
2024/02/02 07:53:09;;;;;;;35.70;9.50;;;;;;;2.87;100.00;99687.25;137253;1276;22387;-83
2024/02/02 07:56:11;;;;;;;32.50;9.30;;;;;;;2.88;100.00;99685.29;137309;1273;22728;-83
2024/02/02 07:59:14;;;;;;;27.90;8.70;;;;;;;2.91;100.00;99685.57;137339;1276;22249;-84
2024/02/02 08:02:17;;;;;;;27.30;8.80;;;;;;;2.98;100.00;99687.70;137312;1276;22431;-85
2024/02/02 08:05:19;;;;;;;39.10;10.00;;;;;;;3.06;100.00;99694.86;137227;1276;22299;-85
2024/02/02 08:08:22;;;;;;;38.90;8.90;;;;;;;3.05;100.00;99695.33;137247;1276;22406;-82
2024/02/02 08:11:25;;;;;;;30.80;8.70;;;;;;;3.02;100.00;99694.77;137056;1276;22575;-85
2024/02/02 08:14:29;;;;;;;24.90;7.90;;;;;;;3.12;100.00;99699.31;137040;1276;22229;-83
2024/02/02 08:17:31;;;;;;;34.40;8.50;;;;;;;3.22;100.00;99696.08;137288;1276;22319;-83
2024/02/02 08:20:34;;;;;;;25.80;7.90;;;;;;;3.32;100.00;99703.66;137251;1276;22658;-82
2024/02/02 08:23:37;;;;;;;29.00;8.50;;;;;;;3.47;100.00;99701.23;137558;1263;22199;-84
2024/02/02 08:26:39;;;;;;;28.00;8.00;;;;;;;3.65;100.00;99702.73;137528;1269;22770;-80
2024/02/02 08:29:42;;;;;;;29.70;8.10;;;;;;;3.75;100.00;99697.54;137563;1273;22223;-80
2024/02/02 08:32:51;;;;;;;32.40;7.40;;;;;;;3.83;100.00;99698.52;137525;1273;22236;-84
2024/02/02 08:35:53;;;;;;;34.40;8.90;;;;;;;3.79;100.00;99703.28;137554;1273;22227;-83
2024/02/02 08:38:58;;;;;;;29.10;8.30;;;;;;;3.69;100.00;99699.52;137561;1273;22170;-85
2024/02/02 08:42:01;;;;;;;26.50;8.00;;;;;;;3.69;100.00;99700.34;137599;1273;22234;-84
2024/02/02 08:45:04;;;;;;;27.20;8.00;;;;;;;3.63;100.00;99708.98;137551;1272;22281;-84
2024/02/02 08:48:06;;;;;;;28.50;9.50;;;;;;;3.58;100.00;99715.10;137516;1273;22351;-83
2024/02/02 08:51:09;;;;;;;31.30;8.10;;;;;;;3.58;100.00;99718.71;137534;1273;22349;-82
2024/02/02 08:54:11;;;;;;;32.60;7.50;;;;;;;3.55;100.00;99721.27;137503;1273;22214;-83
2024/02/02 08:57:14;;;;;;;22.10;7.00;;;;;;;3.53;100.00;99718.26;137517;1264;22255;-82
2024/02/02 09:00:16;;;;;;;29.80;7.50;;;;;;;3.54;100.00;99719.00;137565;1273;22225;-80
2024/02/02 09:03:19;;;;;;;33.30;7.60;;;;;;;3.53;100.00;99719.44;137494;1273;22241;-80
2024/02/02 09:06:22;;;;;;;35.40;8.20;;;;;;;3.56;100.00;99713.61;137537;1273;22594;-83
2024/02/02 09:09:25;;;;;;;32.10;7.80;;;;;;;3.57;100.00;99718.98;137560;1272;22165;-82
2024/02/02 09:12:27;;;;;;;29.80;8.70;;;;;;;3.57;100.00;99712.42;137527;1273;22228;-82
2024/02/02 09:15:30;;;;;;;26.80;7.00;;;;;;;3.63;100.00;99710.50;137481;1273;22257;-84
2024/02/02 09:18:33;;;;;;;39.90;8.50;;;;;;;3.65;100.00;99711.48;137511;1273;22241;-81
2024/02/02 09:21:36;;;;;;;33.30;8.10;;;;;;;3.71;100.00;99707.17;137562;1273;22296;-82
2024/02/02 09:24:38;;;;;;;34.10;9.50;;;;;;;3.79;100.00;99710.88;137559;1273;22237;-80
2024/02/02 09:27:41;;;;;;;31.00;7.20;;;;;;;3.86;100.00;99708.11;137361;1273;22344;-82
2024/02/02 09:30:43;;;;;;;36.80;8.60;;;;;;;3.98;100.00;99708.58;137536;1273;22228;-80
2024/02/02 09:33:46;;;;;;;33.70;8.20;;;;;;;4.09;100.00;99715.16;137572;1273;22664;-82
2024/02/02 09:36:49;;;;;;;31.00;8.00;;;;;;;4.13;100.00;99712.27;137515;1273;22210;-82
2024/02/02 09:39:52;;;;;;;29.00;6.90;;;;;;;4.17;100.00;99707.12;137546;1257;22257;-82
2024/02/02 09:42:54;;;;;;;30.80;7.20;;;;;;;4.33;100.00;99709.13;137576;1273;22528;-83
2024/02/02 09:45:57;;;;;;;33.30;8.00;;;;;;;4.50;100.00;99712.59;137571;1269;22267;-82
2024/02/02 09:48:59;;;;;;;22.00;6.80;;;;;;;4.61;100.00;99712.99;137515;1273;22263;-81
2024/02/02 09:52:02;;;;;;;28.40;6.80;;;;;;;4.71;100.00;99711.74;137530;1257;22306;-81
2024/02/02 09:55:06;;;;;;;26.60;7.10;;;;;;;4.73;100.00;99707.55;137494;1272;22427;-80
2024/02/02 09:58:08;;;;;;;32.60;8.00;;;;;;;4.86;100.00;99707.83;137511;1273;23115;-81
2024/02/02 10:01:11;;;;;;;29.10;7.20;;;;;;;4.86;100.00;99705.55;137496;1273;22219;-82
2024/02/02 10:04:13;;;;;;;29.40;6.40;;;;;;;4.84;100.00;99703.58;137524;1273;22199;-80
2024/02/02 10:07:16;;;;;;;25.60;5.90;;;;;;;4.89;100.00;99701.76;137525;1273;22265;-81
2024/02/02 10:10:18;;;;;;;29.90;8.30;;;;;;;5.03;100.00;99696.23;137522;1273;22216;-82
2024/02/02 10:13:21;;;;;;;30.50;7.70;;;;;;;5.17;100.00;99702.57;137421;1273;22254;-81
2024/02/02 10:16:23;;;;;;;40.10;7.90;;;;;;;5.24;100.00;99701.72;137545;1273;22292;-81
2024/02/02 10:19:26;;;;;;;30.90;7.60;;;;;;;5.23;100.00;99698.02;137558;1273;22237;-81
2024/02/02 10:22:29;;;;;;;21.70;6.10;;;;;;;5.27;100.00;99705.28;137462;1273;22335;-81
2024/02/02 10:25:31;;;;;;;27.70;7.10;;;;;;;5.26;100.00;99701.30;137554;1273;22221;-80
2024/02/02 10:28:34;;;;;;;31.60;8.80;;;;;;;5.60;100.00;99687.65;137611;1273;22330;-81
2024/02/02 10:31:40;;;;;;;32.60;7.60;;;;;;;5.84;100.00;99689.58;137570;1273;22353;-79
2024/02/02 10:34:42;;;;;;;30.10;6.90;;;;;;;5.83;100.00;99689.02;137522;1273;22239;-82
2024/02/02 10:37:45;;;;;;;30.60;6.30;;;;;;;5.72;100.00;99683.39;137493;1273;22233;-85
2024/02/02 10:40:48;;;;;;;30.10;8.60;;;;;;;5.70;100.00;99676.02;137555;1273;22203;-84
2024/02/02 10:43:50;;;;;;;39.50;12.80;;;;;;;5.82;100.00;99673.08;137502;1273;22666;-83
2024/02/02 10:46:53;;;;;;;34.60;7.90;;;;;;;5.88;100.00;99670.44;137518;1273;22251;-83
2024/02/02 10:49:56;;;;;;;26.80;9.20;;;;;;;5.81;100.00;99668.90;137479;1273;22229;-84
2024/02/02 10:52:59;;;;;;;32.40;10.00;;;;;;;5.78;100.00;99665.13;137512;1273;22223;-82
2024/02/02 10:56:01;;;;;;;45.60;15.80;;;;;;;5.65;100.00;99663.88;137526;1273;22332;-83
2024/02/02 10:59:05;;;;;;;38.50;10.30;;;;;;;5.52;100.00;99659.84;137553;1272;22309;-84
2024/02/02 11:02:07;;;;;;;34.60;10.50;;;;;;;5.56;100.00;99657.60;137538;1272;22190;-84
2024/02/02 11:05:10;;;;;;;44.80;13.60;;;;;;;5.61;100.00;99652.14;137474;1273;22253;-83
2024/02/02 11:08:14;;;;;;;32.00;10.50;;;;;;;5.65;100.00;99651.45;137523;1273;22222;-84
2024/02/02 11:11:17;;;;;;;33.70;10.10;;;;;;;5.61;100.00;99644.35;137571;1273;22784;-84
2024/02/02 11:14:19;;;;;;;47.00;11.30;;;;;;;5.56;100.00;99638.29;137526;1272;22240;-83
2024/02/02 11:17:22;;;;;;;35.10;11.60;;;;;;;5.54;100.00;99629.54;137526;1273;22270;-82
2024/02/02 11:20:24;;;;;;;33.80;10.20;;;;;;;5.53;100.00;99627.60;137551;1273;22404;-82
2024/02/02 11:23:28;;;;;;;32.60;8.90;;;;;;;5.51;100.00;99618.88;137507;1273;22251;-82
2024/02/02 11:26:31;;;;;;;28.00;8.30;;;;;;;5.48;100.00;99612.20;137508;1273;23031;-82
2024/02/02 11:29:34;;;;;;;29.90;8.90;;;;;;;5.54;100.00;99610.38;137522;1273;22221;-82
2024/02/02 11:32:39;;;;;;;36.10;9.40;;;;;;;5.69;100.00;99615.20;137487;1273;22179;-83
2024/02/02 11:35:42;;;;;;;;;;;;;;;5.86;100.00;99613.01;137595;1273;22971;-83
2024/02/02 11:38:45;;;;;;;27.10;9.10;;;;;;;6.06;100.00;99618.86;137526;1273;22314;-83
2024/02/02 11:41:47;;;;;;;37.20;10.00;;;;;;;6.25;100.00;99622.28;137567;1273;22756;-81
2024/02/02 11:44:50;;;;;;;26.20;10.40;;;;;;;6.25;100.00;99622.83;137561;1273;22268;-83
2024/02/02 11:47:52;;;;;;;35.60;11.90;;;;;;;6.26;100.00;99621.48;137530;1273;22230;-83
2024/02/02 11:50:55;;;;;;;31.10;7.90;;;;;;;6.32;100.00;99616.38;137533;1263;22633;-82
2024/02/02 11:53:58;;;;;;;18.60;5.80;;;;;;;6.27;100.00;99618.73;137498;1273;22703;-82
2024/02/02 11:57:00;;;;;;;32.20;7.80;;;;;;;6.25;100.00;99617.27;137524;1273;22219;-83
2024/02/02 12:00:03;;;;;;;30.90;9.60;;;;;;;6.21;100.00;99613.48;137281;1273;329650;-83
2024/02/02 12:03:08;;;;;;;35.00;8.00;;;;;;;6.19;100.00;99610.96;137410;1273;22382;-83
2024/02/02 12:06:11;;;;;;;22.10;6.70;;;;;;;6.13;100.00;99611.06;137546;1273;22234;-83
2024/02/02 12:09:15;;;;;;;27.10;6.00;;;;;;;6.09;100.00;99605.20;137512;1273;22201;-83
2024/02/02 12:12:17;;;;;;;33.10;7.20;;;;;;;6.20;100.00;99603.42;137399;1273;22562;-82
2024/02/02 12:15:21;;;;;;;27.10;6.70;;;;;;;6.34;100.00;99596.58;137509;1273;22332;-82
2024/02/02 12:18:23;;;;;;;28.70;6.20;;;;;;;6.45;100.00;99595.77;137550;1273;22307;-82
2024/02/02 12:21:26;;;;;;;40.80;7.90;;;;;;;6.54;100.00;99590.94;137562;1273;22214;-82
2024/02/02 12:24:28;;;;;;;23.90;6.80;;;;;;;6.62;100.00;99588.34;137558;1273;22684;-84
2024/02/02 12:27:31;;;;;;;27.20;7.40;;;;;;;6.78;100.00;99585.16;137511;1273;23005;-84
2024/02/02 12:30:33;;;;;;;28.80;6.80;;;;;;;6.76;100.00;99581.29;137440;1273;22200;-82
2024/02/02 12:33:36;;;;;;;22.30;6.10;;;;;;;6.72;100.00;99574.39;137500;1273;22859;-81
2024/02/02 12:36:39;;;;;;;30.10;7.60;;;;;;;6.76;100.00;99569.34;137534;1273;22235;-84
2024/02/02 12:39:41;;;;;;;21.30;5.80;;;;;;;6.78;100.00;99567.86;137463;1273;22354;-83
2024/02/02 12:42:44;;;;;;;25.60;6.40;;;;;;;6.78;100.00;99564.23;137585;1273;22441;-85
2024/02/02 12:45:46;;;;;;;27.90;7.20;;;;;;;6.68;100.00;99562.64;137435;1273;22268;-83
2024/02/02 12:48:49;;;;;;;23.80;7.60;;;;;;;6.59;100.00;99558.80;137342;1273;22427;-83
2024/02/02 12:51:54;;;;;;;25.10;6.30;;;;;;;6.67;100.00;99549.10;137553;1272;22750;-83
2024/02/02 12:54:56;;;;;;;;;;;;;;;6.78;100.00;99548.81;137631;1266;22331;-82
2024/02/02 12:57:59;;;;;;;40.70;13.70;;;;;;;6.86;100.00;99546.52;137579;1272;22238;-83
2024/02/02 13:01:05;;;;;;;44.20;13.90;;;;;;;6.81;100.00;99543.75;137627;1272;22351;-82
2024/02/02 13:04:08;;;;;;;72.50;24.80;;;;;;;6.72;100.00;99538.23;137629;1273;22238;-81
2024/02/02 13:07:10;;;;;;;43.90;13.30;;;;;;;6.62;100.00;99529.02;137538;1273;22332;-81
2024/02/02 13:10:13;;;;;;;33.00;7.70;;;;;;;6.63;100.00;99526.11;137528;1273;22209;-80
2024/02/02 13:13:15;;;;;;;17.80;5.70;;;;;;;6.64;100.00;99521.86;137490;1273;22526;-83
2024/02/02 13:16:18;;;;;;;19.20;6.20;;;;;;;6.65;100.00;99514.77;137531;1266;22849;-81
2024/02/02 13:19:20;;;;;;;16.00;4.90;;;;;;;6.66;100.00;99507.02;137543;1273;22210;-82
2024/02/02 13:22:26;;;;;;;26.50;5.50;;;;;;;7.41;100.00;99495.88;137540;1273;22282;-82
2024/02/02 13:25:28;;;;;;;28.70;7.30;;;;;;;10.15;100.00;99480.20;137449;1273;22272;-82
2024/02/02 13:28:38;;;;;;;14.90;6.00;;;;;;;12.47;100.00;99471.53;137558;1273;22231;-84
2024/02/02 13:31:42;;;;;;;28.30;6.70;;;;;;;13.92;72.37;99464.02;137573;1263;22213;-84
2024/02/02 13:34:46;;;;;;;30.10;5.30;;;;;;;15.36;69.65;99464.37;137566;1273;22788;-84
2024/02/02 13:37:51;;;;;;;17.30;6.00;;;;;;;16.15;63.70;99469.95;137591;1273;22330;-82
2024/02/02 13:40:54;;;;;;;22.90;5.30;;;;;;;16.59;60.54;99475.54;137541;1273;22338;-82
2024/02/02 13:43:57;;;;;;;19.80;4.90;;;;;;;16.49;57.45;99481.34;137514;1273;22244;-83
2024/02/02 13:46:59;;;;;;;14.50;6.30;;;;;;;16.35;56.47;99484.51;137535;1272;22180;-82
2024/02/02 13:50:03;;;;;;;20.00;6.30;;;;;;;16.61;58.79;99481.85;137524;1273;22247;-84
2024/02/02 13:53:06;;;;;;;21.50;6.70;;;;;;;16.99;56.10;99485.46;137551;1273;22053;-84
2024/02/02 13:56:10;;;;;;;25.90;7.30;;;;;;;17.32;58.36;99482.50;137561;1273;22403;-84
2024/02/02 13:59:16;;;;;;;17.40;5.80;;;;;;;17.55;53.36;99480.98;137576;1273;22355;-82